Terminal Aerodrome Forecast
Issued by NWS

Home | Current Version | Previous Version | Text Only | Print | Product List | Glossary On
Versions: 1 2 3 4 5 6 7 8 9 10 11 12 13 14 15
000
FTUS42 TJSJ 262323
TAFNCM
TAF
TNCM 262323Z 2700/2724 08007KT P6SM VCSH FEW018 SCT040
     FM270400 07005KT P6SM SCT018
     FM271400 10011KT P6SM FEW022 SCT035=

USA.gov is the U.S. government's official web portal to all federal, state and local government web resources and services.